Sunday, March 29, 2015, 5:19 AM EDT

KDOV, Dover Air Force Base

Location: Dover, DE, United States Lat: 39.133
Local Time: 5:19 AM EDT ( 9:19 GMT) Lon: -75.467
Time Zone: US/Eastern Elev: 29 ft

Show me the last for .
Show Decoded

2015-03-29 04:58 METAR KDOV 290858Z AUTO 31008KT 10SM CLR M04/M14 A3024 RMK AO2 SLP244 T10391138
                 52012 $ =
2015-03-29 03:58 METAR KDOV 290758Z AUTO 31011KT 10SM CLR M04/M14 A3022 RMK AO2 SLP237 T10361137
                 $ =
2015-03-29 02:58 METAR KDOV 290658Z AUTO 32014KT 10SM BKN090 M03/M14 A3021 =
2015-03-29 01:58 METAR KDOV 290558Z AUTO 31014KT 10SM CLR M02/M14 A3020 RMK AO2 SLP230 T10231143
                 11002 21023 52011 $ =
2015-03-29 00:58 METAR KDOV 290458Z AUTO 31013KT 10SM CLR M01/M11 A3019 RMK AO2 SLP227 T10151112
                 400461017 $ =
2015-03-28 23:58 METAR KDOV 290358Z AUTO 31009KT 10SM BKN042 BKN060 M01/M07 A3018 =
2015-03-28 22:58 METAR KDOV 290258Z AUTO 29009KT 10SM CLR M01/M08 A3017 RMK AO2 SLP220 T10141079
                 52027 $ =
2015-03-28 21:58 METAR KDOV 290158Z AUTO 29010KT 10SM BKN070 M01/M07 A3016 =
2015-03-28 20:58 METAR KDOV 290058Z AUTO 29012KT 10SM FEW048 SCT100 M01/M07 A3013 RMK AO2 PK WND
                 29026/05 SLP207 T10091073 $ =
2015-03-28 19:58 METAR KDOV 282358Z AUTO 29015G21KT 10SM FEW090 00/M09 A3009 RMK AO2 SLP193 60000
                 T10011089 10030 21001 52041 $ =
2015-03-28 18:58 METAR KDOV 282258Z AUTO 29014KT 10SM FEW075 01/M11 A3004 RMK AO2 SLP176
                 T00111107 $ =
2015-03-28 17:58 METAR KDOV 282158Z AUTO 28017G23KT 10SM FEW046 02/M09 A3000 RMK AO2 PK WND
                 27026/23 SLP162 T00151090 $ =
2015-03-28 16:58 METAR KDOV 282058Z AUTO 29021G22KT 10SM FEW037 BKN046 BKN060 02/M06 A2997 =
2015-03-28 16:51 METAR KDOV 282051Z AUTO 28015G20KT 10SM SCT037 BKN046 BKN055 02/M06 A2997 RMK
                 AO2 SNE03RAB03E04FZRAB04E33SNB42E51 =
2015-03-28 16:42 METAR KDOV 282042Z AUTO 30017G25KT 10SM -SN SCT037 BKN048 02/M06 A2997 RMK AO2
                 SNE03RAB03E04FZRAB04E33SNB42 =
2015-03-28 16:33 METAR KDOV 282033Z AUTO 30018G26KT 10SM SCT038 BKN050 02/M06 A2996 RMK AO2
                 SNE03RAB03E04FZRAB04E33 =
2015-03-28 16:04 METAR KDOV 282004Z AUTO 28015G22KT 10SM -FZRA FEW035 02/M06 A2995 RMK AO2
                 SNE03RAB03E04FZRAB04 =
2015-03-28 15:58 METAR KDOV 281958Z AUTO 28016G22KT 10SM -SN FEW035 02/M05 A2995 =
2015-03-28 15:48 METAR KDOV 281948Z AUTO 27016G24KT 10SM UP FEW035 SCT049 02/M05 A2995 RMK AO2
                 RAE19UPB48 =
2015-03-28 15:19 METAR KDOV 281919Z AUTO 28017G24KT 10SM FEW030 SCT060 SCT130 BKN150 BKN200
                 02/M05 A2994 RMK AO2 RAE19 =
2015-03-28 14:58 METAR KDOV 281858Z AUTO 28018G25KT 10SM -RA FEW034 SCT043 BKN055 BKN190 02/M05
                 A2993 RMK AO2 UPB27E29RAB29E44RAB56 CIG 032 RWY19 SLP139 P0000 $ =
2015-03-28 14:56 METAR KDOV 281856Z AUTO 28017G25KT 10SM -RA FEW032 SCT043 BKN055 BKN200 02/M05
                 A2993 RMK AO2 UPB27E29RAB29E44RAB56 CIG 032 RWY19 $ =
2015-03-28 14:44 METAR KDOV 281844Z AUTO 29018G23KT 10SM SCT032 BKN039 BKN180 02/M05 A2993 RMK
                 AO2 UPB27E29RAB29E44 =
2015-03-28 14:27 METAR KDOV 281827Z AUTO 30019KT 10SM UP BKN030 OVC039 02/M05 A2992 RMK AO2 UPB27
                 =
2015-03-28 14:18 METAR KDOV 281818Z AUTO 28017G21KT 10SM OVC032 02/M05 A2992 RMK AO2 $ =
2015-03-28 14:03 METAR KDOV 281803Z AUTO 29019G23KT 10SM BKN027 03/M04 A2992 RMK AO2 $ =
2015-03-28 13:58 METAR KDOV 281758Z AUTO 29019G23KT 10SM SCT026 SCT049 03/M03 A2992 =
2015-03-28 13:28 METAR KDOV 281728Z AUTO 28015G22KT 10SM SCT021 OVC049 02/M03 A2992 RMK AO2 CIG
                 021 RWY19 $ =
2015-03-28 13:08 METAR KDOV 281708Z AUTO 28016G21KT 10SM BKN019 OVC024 00/M03 A2993 RMK AO2 $ =
2015-03-28 12:58 METAR KDOV 281658Z AUTO 29016G22KT 10SM OVC021 00/M03 A2993 RMK AO2
                 SNE1558FZRAB1558E1559RAB1559E19 SLP139 P0000 T00011035 $ =
2015-03-28 12:19 METAR KDOV 281619Z AUTO 28015KT 10SM OVC021 00/M03 A2992 RMK AO2
                 SNE1558FZRAB1558E1559RAB1559E19 =
2015-03-28 12:00 METAR KDOV 281600Z 28015G25KT 10SM -RA BKN020 OVC029 00/M03 A2992 RMK AO2A $ =
2015-03-28 11:58 METAR KDOV 281558Z 29014G25KT 10SM -SN BKN020 OVC029 01/M03 A2992 =
2015-03-28 11:29 METAR KDOV 281529Z COR AUTO 28014KT 10SM -SN BKN017 OVC023 00/M02 A2992 =
2015-03-28 10:58 METAR KDOV 281458Z AUTO 28015KT 7SM -SN OVC016 00/M02 A2992 RMK AO2 SLP135 P0000
                 60000 T00031017 52023 $ =
2015-03-28 10:48 METAR KDOV 281448Z AUTO 28015G22KT 7SM -SN OVC015 00/M02 A2992 RMK AO2 $ =
2015-03-28 09:58 METAR KDOV 281358Z AUTO 29016G22KT 3SM -SN BR BKN014 OVC020 00/M01 A2990 =
2015-03-28 09:46 METAR KDOV 281346Z AUTO 28016KT 3SM -SN BR BKN014 OVC022 00/M01 A2990 RMK AO2
                 VIS 2 1/2 RWY19 UPB07E14SNB14E24RAB24E25FZRAB25E26SNB26 CIG 014V023 $ =
2015-03-28 09:26 METAR KDOV 281326Z AUTO 29018G22KT 10SM -SN BKN025 BKN031 OVC055 02/M02 A2988
                 RMK AO2 UPB07E14SNB14E24RAB24E25FZRAB25E26SNB26 $ =
2015-03-28 09:25 METAR KDOV 281325Z AUTO 29017G22KT 10SM -FZRA BKN025 BKN031 OVC043 02/M02 A2989
                 RMK AO2 UPB07E14SNB14E24RAB24E25FZRAB25 =
2015-03-28 09:12 METAR KDOV 281312Z AUTO 29013KT 10SM UP BKN026 OVC046 02/M02 A2988 RMK AO2 UPB07
                 CIG 026V046 BKN V SCT $ =
2015-03-28 09:07 METAR KDOV 281307Z AUTO 31015KT 10SM UP SCT026 OVC046 02/M02 A2988 RMK AO2 UPB07
                 =
2015-03-28 08:58 METAR KDOV 281258Z AUTO 30016KT 10SM SCT026 OVC047 02/M02 A2988 =
2015-03-28 08:13 METAR KDOV 281213Z AUTO 31014KT 10SM SCT027 OVC038 02/M03 A2986 RMK AO2 $ =
2015-03-28 08:08 METAR KDOV 281208Z AUTO 31014KT 10SM BKN027 OVC037 02/M02 A2986 RMK AO2 CIG
                 027V033 BKN V SCT $ =
2015-03-28 08:03 METAR KDOV 281203Z AUTO 31014G18KT 10SM SCT027 BKN033 OVC060 02/M01 A2986 RMK
                 AO2 =
2015-03-28 07:58 METAR KDOV 281158Z AUTO 31013KT 10SM BKN027 BKN032 OVC060 02/00 A2986 RMK AO2
                 UPB00E09RAB09E50 CIG 026V060 SLP115 P0000 60000 70006 T00191005 10043 20017
                 52023 $ =
2015-03-28 07:55 METAR KDOV 281155Z AUTO 31012KT 10SM BKN026 OVC060 02/00 A2986 RMK AO2
                 UPB00E09RAB09E50 CIG 026V060 BKN V SCT $ =
2015-03-28 07:50 METAR KDOV 281150Z AUTO 31010KT 10SM SCT026 BKN060 02/00 A2985 RMK AO2
                 UPB00E09RAB09E50 =
2015-03-28 07:00 METAR KDOV 281100Z AUTO 29012KT 10SM UP OVC050 02/M01 A2983 RMK AO2 UPB00 $ =
2015-03-28 06:58 METAR KDOV 281058Z AUTO 30011KT 10SM OVC055 02/M01 A2983 RMK AO2 SLP105
                 T00221014 $ =
2015-03-28 05:58 METAR KDOV 280958Z AUTO 30012KT 10SM OVC070 03/M01 A2981 =

Support USWX by starting your Amazon purchase here.